sensor_id;sensor_type;location;lat;lon;timestamp;P1;durP1;ratioP1;P2;durP2;ratioP2
41255;SDS011;26989;45.524;10.938;2022-12-31T00:00:29;43.63;;;28.83;;
41255;SDS011;26989;45.524;10.938;2022-12-31T00:02:57;48.90;;;31.48;;
41255;SDS011;26989;45.524;10.938;2022-12-31T00:05:24;52.75;;;32.70;;
41255;SDS011;26989;45.524;10.938;2022-12-31T00:07:51;44.30;;;29.75;;
41255;SDS011;26989;45.524;10.938;2022-12-31T00:10:17;40.40;;;27.17;;
41255;SDS011;26989;45.524;10.938;2022-12-31T00:12:44;43.08;;;26.50;;
41255;SDS011;26989;45.524;10.938;2022-12-31T00:15:11;36.72;;;25.85;;
41255;SDS011;26989;45.524;10.938;2022-12-31T00:17:38;42.10;;;26.48;;
41255;SDS011;26989;45.524;10.938;2022-12-31T00:20:05;39.60;;;26.63;;
41255;SDS011;26989;45.524;10.938;2022-12-31T00:22:33;39.35;;;25.63;;
41255;SDS011;26989;45.524;10.938;2022-12-31T00:25:00;43.70;;;26.88;;
41255;SDS011;26989;45.524;10.938;2022-12-31T00:27:30;43.08;;;27.83;;
41255;SDS011;26989;45.524;10.938;2022-12-31T00:29:57;43.08;;;26.77;;
41255;SDS011;26989;45.524;10.938;2022-12-31T00:32:30;43.25;;;28.20;;
41255;SDS011;26989;45.524;10.938;2022-12-31T00:34:56;42.45;;;27.55;;
41255;SDS011;26989;45.524;10.938;2022-12-31T00:37:23;44.05;;;28.40;;
41255;SDS011;26989;45.524;10.938;2022-12-31T00:39:50;44.55;;;28.23;;
41255;SDS011;26989;45.524;10.938;2022-12-31T00:42:17;43.15;;;29.00;;
41255;SDS011;26989;45.524;10.938;2022-12-31T00:44:47;46.63;;;27.98;;
41255;SDS011;26989;45.524;10.938;2022-12-31T00:47:14;43.08;;;26.63;;
41255;SDS011;26989;45.524;10.938;2022-12-31T00:49:41;43.00;;;27.95;;
41255;SDS011;26989;45.524;10.938;2022-12-31T00:52:08;39.80;;;26.48;;
41255;SDS011;26989;45.524;10.938;2022-12-31T00:54:35;41.08;;;26.63;;
41255;SDS011;26989;45.524;10.938;2022-12-31T00:57:02;36.65;;;24.35;;
41255;SDS011;26989;45.524;10.938;2022-12-31T00:59:29;36.15;;;24.30;;
41255;SDS011;26989;45.524;10.938;2022-12-31T01:01:56;36.80;;;24.25;;
41255;SDS011;26989;45.524;10.938;2022-12-31T01:04:23;36.25;;;22.27;;
41255;SDS011;26989;45.524;10.938;2022-12-31T01:06:50;32.38;;;22.65;;
41255;SDS011;26989;45.524;10.938;2022-12-31T01:09:17;37.30;;;22.33;;
41255;SDS011;26989;45.524;10.938;2022-12-31T01:11:44;34.85;;;22.33;;
41255;SDS011;26989;45.524;10.938;2022-12-31T01:14:13;36.65;;;22.83;;
41255;SDS011;26989;45.524;10.938;2022-12-31T01:16:43;31.17;;;21.42;;
41255;SDS011;26989;45.524;10.938;2022-12-31T01:19:13;32.50;;;21.83;;
41255;SDS011;26989;45.524;10.938;2022-12-31T01:21:41;33.53;;;22.00;;
41255;SDS011;26989;45.524;10.938;2022-12-31T01:24:09;34.45;;;21.20;;
41255;SDS011;26989;45.524;10.938;2022-12-31T01:26:37;37.45;;;21.98;;
41255;SDS011;26989;45.524;10.938;2022-12-31T01:29:05;36.70;;;21.77;;
41255;SDS011;26989;45.524;10.938;2022-12-31T01:31:33;33.50;;;21.48;;
41255;SDS011;26989;45.524;10.938;2022-12-31T01:34:01;33.38;;;21.45;;
41255;SDS011;26989;45.524;10.938;2022-12-31T01:36:29;31.33;;;20.63;;
41255;SDS011;26989;45.524;10.938;2022-12-31T01:38:58;34.47;;;23.02;;
41255;SDS011;26989;45.524;10.938;2022-12-31T01:41:33;33.45;;;21.73;;
41255;SDS011;26989;45.524;10.938;2022-12-31T01:46:42;30.58;;;21.55;;
41255;SDS011;26989;45.524;10.938;2022-12-31T01:51:45;37.50;;;22.45;;
41255;SDS011;26989;45.524;10.938;2022-12-31T01:54:17;41.78;;;23.42;;
41255;SDS011;26989;45.524;10.938;2022-12-31T01:56:46;40.85;;;24.38;;
41255;SDS011;26989;45.524;10.938;2022-12-31T01:59:15;38.65;;;24.15;;
41255;SDS011;26989;45.524;10.938;2022-12-31T02:01:44;41.60;;;24.33;;
41255;SDS011;26989;45.524;10.938;2022-12-31T02:04:13;46.72;;;27.45;;
41255;SDS011;26989;45.524;10.938;2022-12-31T02:06:43;52.42;;;28.33;;
41255;SDS011;26989;45.524;10.938;2022-12-31T02:09:16;47.42;;;25.88;;
41255;SDS011;26989;45.524;10.938;2022-12-31T02:11:44;45.90;;;26.17;;
41255;SDS011;26989;45.524;10.938;2022-12-31T02:14:14;53.20;;;27.67;;
41255;SDS011;26989;45.524;10.938;2022-12-31T02:17:00;65.18;;;27.90;;
41255;SDS011;26989;45.524;10.938;2022-12-31T02:28:27;116.82;;;29.58;;
41255;SDS011;26989;45.524;10.938;2022-12-31T02:33:47;212.27;;;31.38;;
41255;SDS011;26989;45.524;10.938;2022-12-31T02:36:21;110.35;;;29.75;;
41255;SDS011;26989;45.524;10.938;2022-12-31T02:38:51;131.35;;;28.10;;
41255;SDS011;26989;45.524;10.938;2022-12-31T02:41:20;130.52;;;29.48;;
41255;SDS011;26989;45.524;10.938;2022-12-31T02:55:54;64.13;;;31.08;;
41255;SDS011;26989;45.524;10.938;2022-12-31T03:01:57;46.33;;;27.80;;
41255;SDS011;26989;45.524;10.938;2022-12-31T03:04:42;49.25;;;27.55;;
41255;SDS011;26989;45.524;10.938;2022-12-31T03:07:14;46.90;;;26.52;;
41255;SDS011;26989;45.524;10.938;2022-12-31T03:09:44;51.50;;;27.88;;
41255;SDS011;26989;45.524;10.938;2022-12-31T03:12:11;46.42;;;27.88;;
41255;SDS011;26989;45.524;10.938;2022-12-31T03:14:56;49.97;;;26.35;;
41255;SDS011;26989;45.524;10.938;2022-12-31T03:17:24;52.92;;;26.63;;
41255;SDS011;26989;45.524;10.938;2022-12-31T03:19:51;42.13;;;23.45;;
41255;SDS011;26989;45.524;10.938;2022-12-31T03:22:38;35.75;;;22.88;;
41255;SDS011;26989;45.524;10.938;2022-12-31T03:25:09;35.40;;;21.80;;
41255;SDS011;26989;45.524;10.938;2022-12-31T03:28:20;35.55;;;20.52;;
41255;SDS011;26989;45.524;10.938;2022-12-31T03:30:51;35.03;;;21.52;;
41255;SDS011;26989;45.524;10.938;2022-12-31T03:33:21;34.45;;;22.10;;
41255;SDS011;26989;45.524;10.938;2022-12-31T03:35:49;36.13;;;20.98;;
41255;SDS011;26989;45.524;10.938;2022-12-31T03:38:17;38.53;;;20.27;;
41255;SDS011;26989;45.524;10.938;2022-12-31T03:40:46;32.90;;;19.85;;
41255;SDS011;26989;45.524;10.938;2022-12-31T03:43:15;37.30;;;21.35;;
41255;SDS011;26989;45.524;10.938;2022-12-31T03:45:42;38.47;;;21.05;;
41255;SDS011;26989;45.524;10.938;2022-12-31T03:48:09;35.22;;;21.10;;
41255;SDS011;26989;45.524;10.938;2022-12-31T03:50:36;31.67;;;19.40;;
41255;SDS011;26989;45.524;10.938;2022-12-31T03:53:03;31.75;;;19.33;;
41255;SDS011;26989;45.524;10.938;2022-12-31T03:55:31;27.17;;;16.38;;
41255;SDS011;26989;45.524;10.938;2022-12-31T03:57:57;26.73;;;16.55;;
41255;SDS011;26989;45.524;10.938;2022-12-31T04:00:25;27.83;;;17.70;;
41255;SDS011;26989;45.524;10.938;2022-12-31T04:02:52;30.45;;;18.00;;
41255;SDS011;26989;45.524;10.938;2022-12-31T04:05:19;30.83;;;19.73;;
41255;SDS011;26989;45.524;10.938;2022-12-31T04:07:46;34.88;;;21.38;;
41255;SDS011;26989;45.524;10.938;2022-12-31T04:10:14;33.85;;;21.55;;
41255;SDS011;26989;45.524;10.938;2022-12-31T04:12:43;33.22;;;21.77;;
41255;SDS011;26989;45.524;10.938;2022-12-31T04:15:13;29.65;;;20.20;;
41255;SDS011;26989;45.524;10.938;2022-12-31T04:20:09;37.20;;;20.73;;
41255;SDS011;26989;45.524;10.938;2022-12-31T04:22:36;34.88;;;20.63;;
41255;SDS011;26989;45.524;10.938;2022-12-31T04:25:04;41.65;;;23.35;;
41255;SDS011;26989;45.524;10.938;2022-12-31T04:27:39;47.38;;;24.73;;
41255;SDS011;26989;45.524;10.938;2022-12-31T04:30:09;48.40;;;25.90;;
41255;SDS011;26989;45.524;10.938;2022-12-31T04:32:37;47.67;;;27.70;;
41255;SDS011;26989;45.524;10.938;2022-12-31T04:35:04;57.38;;;28.25;;
41255;SDS011;26989;45.524;10.938;2022-12-31T04:37:32;54.72;;;27.88;;
41255;SDS011;26989;45.524;10.938;2022-12-31T04:39:59;56.38;;;27.83;;
41255;SDS011;26989;45.524;10.938;2022-12-31T04:42:31;56.97;;;27.98;;
41255;SDS011;26989;45.524;10.938;2022-12-31T04:44:58;50.00;;;27.75;;
41255;SDS011;26989;45.524;10.938;2022-12-31T04:47:25;53.10;;;26.55;;
41255;SDS011;26989;45.524;10.938;2022-12-31T04:49:52;55.75;;;28.90;;
41255;SDS011;26989;45.524;10.938;2022-12-31T04:52:19;57.85;;;28.38;;
41255;SDS011;26989;45.524;10.938;2022-12-31T04:54:48;54.53;;;27.17;;
41255;SDS011;26989;45.524;10.938;2022-12-31T04:57:15;54.80;;;27.25;;
41255;SDS011;26989;45.524;10.938;2022-12-31T04:59:42;56.50;;;27.88;;
41255;SDS011;26989;45.524;10.938;2022-12-31T05:02:09;54.50;;;28.10;;
41255;SDS011;26989;45.524;10.938;2022-12-31T05:04:36;55.88;;;29.23;;
41255;SDS011;26989;45.524;10.938;2022-12-31T05:07:03;55.78;;;27.92;;
41255;SDS011;26989;45.524;10.938;2022-12-31T05:09:30;54.58;;;29.42;;
41255;SDS011;26989;45.524;10.938;2022-12-31T05:11:56;71.30;;;31.77;;
41255;SDS011;26989;45.524;10.938;2022-12-31T05:14:23;60.72;;;32.00;;
41255;SDS011;26989;45.524;10.938;2022-12-31T05:16:50;66.90;;;31.70;;
41255;SDS011;26989;45.524;10.938;2022-12-31T05:19:17;65.55;;;32.80;;
41255;SDS011;26989;45.524;10.938;2022-12-31T05:21:44;63.45;;;33.03;;
41255;SDS011;26989;45.524;10.938;2022-12-31T05:24:31;64.57;;;32.05;;
41255;SDS011;26989;45.524;10.938;2022-12-31T05:26:58;62.85;;;32.47;;
41255;SDS011;26989;45.524;10.938;2022-12-31T05:29:25;65.57;;;32.72;;
41255;SDS011;26989;45.524;10.938;2022-12-31T05:31:52;58.00;;;29.58;;
41255;SDS011;26989;45.524;10.938;2022-12-31T05:34:19;67.68;;;31.40;;
41255;SDS011;26989;45.524;10.938;2022-12-31T05:36:46;81.57;;;34.58;;
41255;SDS011;26989;45.524;10.938;2022-12-31T05:39:12;75.55;;;35.00;;
41255;SDS011;26989;45.524;10.938;2022-12-31T05:41:39;73.65;;;35.45;;
41255;SDS011;26989;45.524;10.938;2022-12-31T05:44:06;61.97;;;31.77;;
41255;SDS011;26989;45.524;10.938;2022-12-31T05:46:33;52.58;;;27.98;;
41255;SDS011;26989;45.524;10.938;2022-12-31T05:49:00;54.25;;;26.98;;
41255;SDS011;26989;45.524;10.938;2022-12-31T05:51:27;50.38;;;27.60;;
41255;SDS011;26989;45.524;10.938;2022-12-31T05:53:54;50.22;;;26.30;;
41255;SDS011;26989;45.524;10.938;2022-12-31T05:56:21;49.17;;;25.58;;
41255;SDS011;26989;45.524;10.938;2022-12-31T05:58:48;43.85;;;25.85;;
41255;SDS011;26989;45.524;10.938;2022-12-31T06:01:15;47.45;;;26.95;;
41255;SDS011;26989;45.524;10.938;2022-12-31T06:03:42;47.42;;;26.35;;
41255;SDS011;26989;45.524;10.938;2022-12-31T06:06:09;48.55;;;26.45;;
41255;SDS011;26989;45.524;10.938;2022-12-31T06:08:36;52.58;;;26.77;;
41255;SDS011;26989;45.524;10.938;2022-12-31T06:11:02;54.60;;;29.02;;
41255;SDS011;26989;45.524;10.938;2022-12-31T06:13:29;48.78;;;26.60;;
41255;SDS011;26989;45.524;10.938;2022-12-31T06:15:56;58.50;;;30.27;;
41255;SDS011;26989;45.524;10.938;2022-12-31T06:18:23;49.38;;;28.48;;
41255;SDS011;26989;45.524;10.938;2022-12-31T06:20:51;52.88;;;29.48;;
41255;SDS011;26989;45.524;10.938;2022-12-31T06:23:18;48.65;;;27.13;;
41255;SDS011;26989;45.524;10.938;2022-12-31T06:25:45;47.28;;;27.08;;
41255;SDS011;26989;45.524;10.938;2022-12-31T06:28:12;47.85;;;27.52;;
41255;SDS011;26989;45.524;10.938;2022-12-31T06:30:45;49.90;;;28.85;;
41255;SDS011;26989;45.524;10.938;2022-12-31T06:33:13;54.55;;;28.38;;
41255;SDS011;26989;45.524;10.938;2022-12-31T06:35:40;55.17;;;30.10;;
41255;SDS011;26989;45.524;10.938;2022-12-31T06:38:07;55.95;;;31.27;;
41255;SDS011;26989;45.524;10.938;2022-12-31T06:40:35;54.67;;;28.92;;
41255;SDS011;26989;45.524;10.938;2022-12-31T06:43:03;48.53;;;27.48;;
41255;SDS011;26989;45.524;10.938;2022-12-31T06:45:31;47.78;;;26.42;;
41255;SDS011;26989;45.524;10.938;2022-12-31T06:47:57;48.63;;;26.73;;
41255;SDS011;26989;45.524;10.938;2022-12-31T06:50:24;46.60;;;26.63;;
41255;SDS011;26989;45.524;10.938;2022-12-31T06:52:51;46.78;;;26.75;;
41255;SDS011;26989;45.524;10.938;2022-12-31T06:55:19;52.08;;;27.27;;
41255;SDS011;26989;45.524;10.938;2022-12-31T06:57:49;42.20;;;26.27;;
41255;SDS011;26989;45.524;10.938;2022-12-31T07:00:19;40.30;;;24.38;;
41255;SDS011;26989;45.524;10.938;2022-12-31T07:02:52;50.70;;;32.33;;
41255;SDS011;26989;45.524;10.938;2022-12-31T07:08:48;51.38;;;30.27;;
41255;SDS011;26989;45.524;10.938;2022-12-31T07:11:28;51.55;;;29.85;;
41255;SDS011;26989;45.524;10.938;2022-12-31T07:14:32;52.33;;;29.77;;
41255;SDS011;26989;45.524;10.938;2022-12-31T07:19:48;47.45;;;26.95;;
41255;SDS011;26989;45.524;10.938;2022-12-31T07:22:23;44.00;;;26.05;;
41255;SDS011;26989;45.524;10.938;2022-12-31T07:24:51;48.15;;;26.13;;
41255;SDS011;26989;45.524;10.938;2022-12-31T07:30:14;39.05;;;24.00;;
41255;SDS011;26989;45.524;10.938;2022-12-31T07:38:35;57.78;;;33.83;;
41255;SDS011;26989;45.524;10.938;2022-12-31T07:41:22;60.15;;;36.17;;
41255;SDS011;26989;45.524;10.938;2022-12-31T07:46:34;64.93;;;38.88;;
41255;SDS011;26989;45.524;10.938;2022-12-31T07:49:08;51.90;;;32.60;;
41255;SDS011;26989;45.524;10.938;2022-12-31T07:51:37;52.05;;;32.03;;
41255;SDS011;26989;45.524;10.938;2022-12-31T07:54:05;56.05;;;33.83;;
41255;SDS011;26989;45.524;10.938;2022-12-31T07:56:39;56.22;;;32.15;;
41255;SDS011;26989;45.524;10.938;2022-12-31T08:05:20;47.30;;;28.55;;
41255;SDS011;26989;45.524;10.938;2022-12-31T08:07:59;45.67;;;29.00;;
41255;SDS011;26989;45.524;10.938;2022-12-31T08:13:37;49.45;;;28.67;;
41255;SDS011;26989;45.524;10.938;2022-12-31T08:16:16;46.47;;;32.00;;
41255;SDS011;26989;45.524;10.938;2022-12-31T08:18:44;48.75;;;31.30;;
41255;SDS011;26989;45.524;10.938;2022-12-31T08:29:34;46.20;;;31.70;;
41255;SDS011;26989;45.524;10.938;2022-12-31T08:41:02;38.03;;;27.20;;
41255;SDS011;26989;45.524;10.938;2022-12-31T08:46:28;43.22;;;26.20;;
41255;SDS011;26989;45.524;10.938;2022-12-31T08:49:01;38.67;;;25.60;;
41255;SDS011;26989;45.524;10.938;2022-12-31T08:51:28;43.67;;;25.88;;
41255;SDS011;26989;45.524;10.938;2022-12-31T08:53:55;54.30;;;25.98;;
41255;SDS011;26989;45.524;10.938;2022-12-31T09:02:21;36.38;;;22.75;;
41255;SDS011;26989;45.524;10.938;2022-12-31T09:07:37;38.40;;;22.73;;
41255;SDS011;26989;45.524;10.938;2022-12-31T09:13:27;42.60;;;23.67;;
41255;SDS011;26989;45.524;10.938;2022-12-31T09:18:38;42.97;;;26.05;;
41255;SDS011;26989;45.524;10.938;2022-12-31T09:21:09;36.50;;;24.08;;
41255;SDS011;26989;45.524;10.938;2022-12-31T09:23:38;35.38;;;22.35;;
41255;SDS011;26989;45.524;10.938;2022-12-31T09:26:23;36.40;;;24.25;;
41255;SDS011;26989;45.524;10.938;2022-12-31T09:29:02;39.97;;;26.75;;
41255;SDS011;26989;45.524;10.938;2022-12-31T09:31:51;40.30;;;26.27;;
41255;SDS011;26989;45.524;10.938;2022-12-31T09:34:34;36.80;;;25.70;;
41255;SDS011;26989;45.524;10.938;2022-12-31T09:37:12;41.40;;;27.30;;
41255;SDS011;26989;45.524;10.938;2022-12-31T09:39:47;38.30;;;26.13;;
41255;SDS011;26989;45.524;10.938;2022-12-31T09:45:14;35.05;;;25.13;;
41255;SDS011;26989;45.524;10.938;2022-12-31T10:04:32;32.10;;;23.15;;
41255;SDS011;26989;45.524;10.938;2022-12-31T10:24:20;37.30;;;25.42;;
41255;SDS011;26989;45.524;10.938;2022-12-31T10:35:42;46.65;;;25.80;;
41255;SDS011;26989;45.524;10.938;2022-12-31T10:50:19;38.25;;;23.48;;
41255;SDS011;26989;45.524;10.938;2022-12-31T10:56:32;78.97;;;41.92;;
41255;SDS011;26989;45.524;10.938;2022-12-31T11:05:05;42.50;;;25.63;;
41255;SDS011;26989;45.524;10.938;2022-12-31T11:10:48;36.95;;;22.38;;
41255;SDS011;26989;45.524;10.938;2022-12-31T11:16:14;34.90;;;22.67;;
41255;SDS011;26989;45.524;10.938;2022-12-31T11:53:07;27.50;;;18.77;;
41255;SDS011;26989;45.524;10.938;2022-12-31T11:58:44;26.85;;;17.33;;
41255;SDS011;26989;45.524;10.938;2022-12-31T12:01:16;28.70;;;18.10;;
41255;SDS011;26989;45.524;10.938;2022-12-31T12:04:07;28.70;;;18.20;;
41255;SDS011;26989;45.524;10.938;2022-12-31T12:06:36;28.05;;;17.50;;
41255;SDS011;26989;45.524;10.938;2022-12-31T12:09:06;27.88;;;18.10;;
41255;SDS011;26989;45.524;10.938;2022-12-31T12:11:40;26.25;;;18.27;;
41255;SDS011;26989;45.524;10.938;2022-12-31T12:14:19;27.90;;;18.38;;
41255;SDS011;26989;45.524;10.938;2022-12-31T12:16:58;28.23;;;18.93;;
41255;SDS011;26989;45.524;10.938;2022-12-31T12:19:31;27.45;;;16.88;;
41255;SDS011;26989;45.524;10.938;2022-12-31T12:22:11;27.55;;;17.67;;
41255;SDS011;26989;45.524;10.938;2022-12-31T12:25:19;27.92;;;18.50;;
41255;SDS011;26989;45.524;10.938;2022-12-31T12:27:43;28.98;;;18.63;;
41255;SDS011;26989;45.524;10.938;2022-12-31T12:30:20;25.77;;;17.58;;
41255;SDS011;26989;45.524;10.938;2022-12-31T12:32:53;24.80;;;16.25;;
41255;SDS011;26989;45.524;10.938;2022-12-31T12:35:30;26.48;;;18.05;;
41255;SDS011;26989;45.524;10.938;2022-12-31T12:38:02;25.42;;;17.92;;
41255;SDS011;26989;45.524;10.938;2022-12-31T12:40:59;29.90;;;17.08;;
41255;SDS011;26989;45.524;10.938;2022-12-31T12:43:29;26.27;;;18.73;;
41255;SDS011;26989;45.524;10.938;2022-12-31T12:45:58;27.02;;;17.20;;
41255;SDS011;26989;45.524;10.938;2022-12-31T12:48:32;29.05;;;18.23;;
41255;SDS011;26989;45.524;10.938;2022-12-31T12:51:05;27.50;;;18.17;;
41255;SDS011;26989;45.524;10.938;2022-12-31T12:59:34;28.50;;;17.98;;
41255;SDS011;26989;45.524;10.938;2022-12-31T13:05:03;34.72;;;20.10;;
41255;SDS011;26989;45.524;10.938;2022-12-31T13:18:30;27.48;;;17.50;;
41255;SDS011;26989;45.524;10.938;2022-12-31T13:21:23;23.08;;;15.93;;
41255;SDS011;26989;45.524;10.938;2022-12-31T13:29:29;26.05;;;17.35;;
41255;SDS011;26989;45.524;10.938;2022-12-31T13:32:00;34.80;;;21.42;;
41255;SDS011;26989;45.524;10.938;2022-12-31T13:34:32;33.25;;;22.83;;
41255;SDS011;26989;45.524;10.938;2022-12-31T13:37:05;33.50;;;22.70;;
41255;SDS011;26989;45.524;10.938;2022-12-31T13:40:22;31.90;;;23.00;;
41255;SDS011;26989;45.524;10.938;2022-12-31T13:43:02;36.13;;;23.63;;
41255;SDS011;26989;45.524;10.938;2022-12-31T13:45:39;36.55;;;21.75;;
41255;SDS011;26989;45.524;10.938;2022-12-31T13:48:29;37.60;;;22.98;;
41255;SDS011;26989;45.524;10.938;2022-12-31T13:51:19;34.70;;;23.42;;
41255;SDS011;26989;45.524;10.938;2022-12-31T13:56:43;33.47;;;21.38;;
41255;SDS011;26989;45.524;10.938;2022-12-31T13:59:21;40.03;;;25.63;;
41255;SDS011;26989;45.524;10.938;2022-12-31T14:05:11;39.20;;;24.23;;
41255;SDS011;26989;45.524;10.938;2022-12-31T14:07:49;35.30;;;23.63;;
41255;SDS011;26989;45.524;10.938;2022-12-31T14:10:26;37.42;;;23.55;;
41255;SDS011;26989;45.524;10.938;2022-12-31T14:16:23;38.40;;;23.55;;
41255;SDS011;26989;45.524;10.938;2022-12-31T14:24:49;33.67;;;21.05;;
41255;SDS011;26989;45.524;10.938;2022-12-31T14:27:19;33.97;;;22.08;;
41255;SDS011;26989;45.524;10.938;2022-12-31T14:29:57;33.75;;;21.25;;
41255;SDS011;26989;45.524;10.938;2022-12-31T14:35:38;32.42;;;20.90;;
41255;SDS011;26989;45.524;10.938;2022-12-31T14:38:26;31.70;;;21.25;;
41255;SDS011;26989;45.524;10.938;2022-12-31T14:44:01;30.10;;;21.23;;
41255;SDS011;26989;45.524;10.938;2022-12-31T14:46:59;32.58;;;21.98;;
41255;SDS011;26989;45.524;10.938;2022-12-31T14:50:08;32.55;;;21.35;;
41255;SDS011;26989;45.524;10.938;2022-12-31T14:52:53;33.65;;;22.05;;
41255;SDS011;26989;45.524;10.938;2022-12-31T14:55:39;33.45;;;23.45;;
41255;SDS011;26989;45.524;10.938;2022-12-31T15:03:55;34.33;;;22.55;;
41255;SDS011;26989;45.524;10.938;2022-12-31T15:06:34;42.05;;;24.95;;
41255;SDS011;26989;45.524;10.938;2022-12-31T15:23:18;39.38;;;23.45;;
41255;SDS011;26989;45.524;10.938;2022-12-31T15:25:54;36.20;;;24.10;;
41255;SDS011;26989;45.524;10.938;2022-12-31T15:28:29;34.30;;;24.30;;
41255;SDS011;26989;45.524;10.938;2022-12-31T15:34:03;38.58;;;25.52;;
41255;SDS011;26989;45.524;10.938;2022-12-31T15:36:36;41.80;;;26.95;;
41255;SDS011;26989;45.524;10.938;2022-12-31T15:39:41;41.58;;;28.42;;
41255;SDS011;26989;45.524;10.938;2022-12-31T15:45:04;43.45;;;27.80;;
41255;SDS011;26989;45.524;10.938;2022-12-31T15:47:38;44.75;;;28.33;;
41255;SDS011;26989;45.524;10.938;2022-12-31T15:50:25;41.35;;;26.98;;
41255;SDS011;26989;45.524;10.938;2022-12-31T15:52:54;44.88;;;25.50;;
41255;SDS011;26989;45.524;10.938;2022-12-31T15:55:29;42.65;;;26.20;;
41255;SDS011;26989;45.524;10.938;2022-12-31T15:58:10;44.33;;;28.05;;
41255;SDS011;26989;45.524;10.938;2022-12-31T16:03:35;49.42;;;30.35;;
41255;SDS011;26989;45.524;10.938;2022-12-31T16:06:03;47.97;;;31.15;;
41255;SDS011;26989;45.524;10.938;2022-12-31T16:08:36;46.17;;;30.60;;
41255;SDS011;26989;45.524;10.938;2022-12-31T16:11:06;50.38;;;30.17;;
41255;SDS011;26989;45.524;10.938;2022-12-31T16:13:35;69.28;;;44.28;;
41255;SDS011;26989;45.524;10.938;2022-12-31T16:16:07;56.22;;;35.63;;
41255;SDS011;26989;45.524;10.938;2022-12-31T16:18:44;52.90;;;34.50;;
41255;SDS011;26989;45.524;10.938;2022-12-31T16:21:21;54.72;;;33.72;;
41255;SDS011;26989;45.524;10.938;2022-12-31T16:23:56;53.83;;;34.95;;
41255;SDS011;26989;45.524;10.938;2022-12-31T16:29:22;71.45;;;44.05;;
41255;SDS011;26989;45.524;10.938;2022-12-31T16:31:50;64.05;;;40.30;;
41255;SDS011;26989;45.524;10.938;2022-12-31T16:34:20;61.28;;;38.78;;
41255;SDS011;26989;45.524;10.938;2022-12-31T16:36:59;63.28;;;37.53;;
41255;SDS011;26989;45.524;10.938;2022-12-31T16:39:30;63.47;;;38.20;;
41255;SDS011;26989;45.524;10.938;2022-12-31T16:42:21;78.65;;;45.90;;
41255;SDS011;26989;45.524;10.938;2022-12-31T16:44:51;78.28;;;48.38;;
41255;SDS011;26989;45.524;10.938;2022-12-31T16:47:21;54.83;;;35.85;;
41255;SDS011;26989;45.524;10.938;2022-12-31T16:50:34;70.40;;;40.97;;
41255;SDS011;26989;45.524;10.938;2022-12-31T16:52:49;60.00;;;39.00;;
41255;SDS011;26989;45.524;10.938;2022-12-31T16:55:24;59.20;;;36.92;;
41255;SDS011;26989;45.524;10.938;2022-12-31T16:57:58;60.78;;;37.45;;
41255;SDS011;26989;45.524;10.938;2022-12-31T17:00:36;53.65;;;34.83;;
41255;SDS011;26989;45.524;10.938;2022-12-31T17:05:54;57.50;;;37.20;;
41255;SDS011;26989;45.524;10.938;2022-12-31T17:08:27;53.92;;;34.78;;
41255;SDS011;26989;45.524;10.938;2022-12-31T17:11:04;56.45;;;35.75;;
41255;SDS011;26989;45.524;10.938;2022-12-31T17:13:33;54.00;;;35.95;;
41255;SDS011;26989;45.524;10.938;2022-12-31T17:16:01;53.50;;;34.88;;
41255;SDS011;26989;45.524;10.938;2022-12-31T17:18:36;56.72;;;36.53;;
41255;SDS011;26989;45.524;10.938;2022-12-31T17:21:07;58.05;;;35.85;;
41255;SDS011;26989;45.524;10.938;2022-12-31T17:23:36;60.35;;;39.30;;
41255;SDS011;26989;45.524;10.938;2022-12-31T17:26:07;69.97;;;43.30;;
41255;SDS011;26989;45.524;10.938;2022-12-31T17:28:47;69.38;;;43.47;;
41255;SDS011;26989;45.524;10.938;2022-12-31T17:31:36;72.95;;;44.25;;
41255;SDS011;26989;45.524;10.938;2022-12-31T17:36:50;66.45;;;40.45;;
41255;SDS011;26989;45.524;10.938;2022-12-31T17:39:30;63.33;;;39.38;;
41255;SDS011;26989;45.524;10.938;2022-12-31T17:42:47;62.45;;;38.97;;
41255;SDS011;26989;45.524;10.938;2022-12-31T17:45:17;76.57;;;50.17;;
41255;SDS011;26989;45.524;10.938;2022-12-31T17:47:46;85.95;;;63.20;;
41255;SDS011;26989;45.524;10.938;2022-12-31T17:52:47;106.90;;;82.60;;
41255;SDS011;26989;45.524;10.938;2022-12-31T17:55:14;96.03;;;66.47;;
41255;SDS011;26989;45.524;10.938;2022-12-31T17:57:49;90.07;;;64.18;;
41255;SDS011;26989;45.524;10.938;2022-12-31T18:00:21;72.93;;;48.60;;
41255;SDS011;26989;45.524;10.938;2022-12-31T18:02:50;68.88;;;41.15;;
41255;SDS011;26989;45.524;10.938;2022-12-31T18:05:19;64.35;;;41.45;;
41255;SDS011;26989;45.524;10.938;2022-12-31T18:07:47;65.55;;;39.05;;
41255;SDS011;26989;45.524;10.938;2022-12-31T18:10:15;58.53;;;35.50;;
41255;SDS011;26989;45.524;10.938;2022-12-31T18:12:44;56.63;;;36.28;;
41255;SDS011;26989;45.524;10.938;2022-12-31T18:15:15;56.60;;;35.58;;
41255;SDS011;26989;45.524;10.938;2022-12-31T18:17:43;58.60;;;37.58;;
41255;SDS011;26989;45.524;10.938;2022-12-31T18:20:11;66.43;;;41.25;;
41255;SDS011;26989;45.524;10.938;2022-12-31T18:22:39;63.10;;;41.05;;
41255;SDS011;26989;45.524;10.938;2022-12-31T18:25:21;57.25;;;37.63;;
41255;SDS011;26989;45.524;10.938;2022-12-31T18:27:49;57.65;;;35.70;;
41255;SDS011;26989;45.524;10.938;2022-12-31T18:30:17;56.42;;;37.13;;
41255;SDS011;26989;45.524;10.938;2022-12-31T18:32:45;62.20;;;38.83;;
41255;SDS011;26989;45.524;10.938;2022-12-31T18:35:17;68.07;;;40.72;;
41255;SDS011;26989;45.524;10.938;2022-12-31T18:38:10;67.38;;;40.55;;
41255;SDS011;26989;45.524;10.938;2022-12-31T18:40:39;64.25;;;41.63;;
41255;SDS011;26989;45.524;10.938;2022-12-31T18:43:16;68.30;;;43.25;;
41255;SDS011;26989;45.524;10.938;2022-12-31T18:45:44;75.25;;;46.33;;
41255;SDS011;26989;45.524;10.938;2022-12-31T18:48:12;78.93;;;49.83;;
41255;SDS011;26989;45.524;10.938;2022-12-31T18:50:39;77.05;;;45.53;;
41255;SDS011;26989;45.524;10.938;2022-12-31T18:53:09;65.78;;;42.83;;
41255;SDS011;26989;45.524;10.938;2022-12-31T18:55:44;74.82;;;43.30;;
41255;SDS011;26989;45.524;10.938;2022-12-31T19:00:43;66.20;;;41.20;;
41255;SDS011;26989;45.524;10.938;2022-12-31T19:03:17;74.35;;;41.55;;
41255;SDS011;26989;45.524;10.938;2022-12-31T19:05:46;70.45;;;39.58;;
41255;SDS011;26989;45.524;10.938;2022-12-31T19:08:17;68.97;;;40.20;;
41255;SDS011;26989;45.524;10.938;2022-12-31T19:10:48;66.57;;;41.20;;
41255;SDS011;26989;45.524;10.938;2022-12-31T19:13:17;72.38;;;43.97;;
41255;SDS011;26989;45.524;10.938;2022-12-31T19:15:48;74.50;;;45.50;;
41255;SDS011;26989;45.524;10.938;2022-12-31T19:18:17;75.50;;;45.30;;
41255;SDS011;26989;45.524;10.938;2022-12-31T19:20:45;70.85;;;42.42;;
41255;SDS011;26989;45.524;10.938;2022-12-31T19:23:16;65.63;;;42.72;;
41255;SDS011;26989;45.524;10.938;2022-12-31T19:25:46;78.72;;;47.28;;
41255;SDS011;26989;45.524;10.938;2022-12-31T19:28:15;85.32;;;50.35;;
41255;SDS011;26989;45.524;10.938;2022-12-31T19:30:47;77.07;;;44.42;;
41255;SDS011;26989;45.524;10.938;2022-12-31T19:33:14;78.70;;;47.00;;